Time;durP1;ratioP1;P1;durP2;ratioP2;P2;SDS_P1;SDS_P2;PMS_P1;PMS_P2;Temp;Humidity;BMP_temperature;BMP_pressure;BME280_temperature;BME280_humidity;BME280_pressure;Samples;Min_cycle;Max_cycle;Signal;HPM_P1;HPM_P2
2021/04/30 00:00:59;;;;;;;7.43;6.28;;;9.60;99.90;;;;;;6280496;22;20326;-76
2021/04/30 00:03:31;;;;;;;9.55;7.32;;;9.60;99.90;;;;;;6278481;22;20412;-76
2021/04/30 00:06:02;;;;;;;8.95;6.80;;;9.60;99.90;;;;;;6305901;22;20046;-75
2021/04/30 00:08:28;;;;;;;9.23;6.57;;;9.60;99.90;;;;;;6278635;22;20054;-76
2021/04/30 00:11:00;;;;;;;8.27;6.57;;;9.50;99.90;;;;;;6279118;22;20021;-75
2021/04/30 00:13:26;;;;;;;8.38;5.90;;;9.50;99.90;;;;;;6305937;22;20329;-75
2021/04/30 00:15:57;;;;;;;7.95;6.00;;;9.40;99.90;;;;;;6253784;22;20347;-75
2021/04/30 00:18:29;;;;;;;7.63;5.90;;;9.40;99.90;;;;;;6306067;22;20425;-76
2021/04/30 00:21:01;;;;;;;9.48;7.10;;;9.40;99.90;;;;;;6254514;22;20090;-76
2021/04/30 00:23:33;;;;;;;8.88;7.05;;;9.40;99.90;;;;;;6254207;22;20011;-75
2021/04/30 00:26:06;;;;;;;9.35;6.63;;;9.30;99.90;;;;;;6278143;22;20414;-76
2021/04/30 00:28:38;;;;;;;7.85;6.75;;;9.30;99.90;;;;;;6279874;22;20015;-76
2021/04/30 00:31:09;;;;;;;7.10;6.15;;;9.40;99.90;;;;;;6280445;22;20038;-76
2021/04/30 00:33:40;;;;;;;9.20;7.18;;;9.40;99.90;;;;;;6254359;22;20098;-77
2021/04/30 00:36:12;;;;;;;11.70;7.13;;;9.40;99.90;;;;;;6305692;22;20090;-75
2021/04/30 00:38:43;;;;;;;8.65;7.18;;;9.50;99.90;;;;;;6305945;22;20018;-76
2021/04/30 00:41:14;;;;;;;13.93;9.75;;;9.50;99.90;;;;;;6278447;22;20025;-75
2021/04/30 00:43:45;;;;;;;12.15;10.00;;;9.50;99.90;;;;;;6254177;22;20015;-76
2021/04/30 00:46:16;;;;;;;14.07;9.73;;;9.50;99.90;;;;;;6279580;22;20411;-75
2021/04/30 00:48:48;;;;;;;12.35;10.40;;;9.50;99.90;;;;;;6254219;22;20026;-76
2021/04/30 00:51:19;;;;;;;11.77;9.88;;;9.50;99.90;;;;;;6278404;22;20016;-76
2021/04/30 00:53:51;;;;;;;13.20;9.50;;;9.50;99.90;;;;;;6278223;22;20093;-75
2021/04/30 00:56:22;;;;;;;15.20;10.57;;;9.50;99.90;;;;;;6305464;22;20015;-75
2021/04/30 00:58:54;;;;;;;13.30;10.20;;;9.50;99.90;;;;;;6254204;22;20019;-75
2021/04/30 01:01:25;;;;;;;7.60;6.80;;;9.50;99.90;;;;;;6279052;22;20011;-76
2021/04/30 01:03:56;;;;;;;11.05;8.13;;;9.50;99.90;;;;;;6278404;22;20022;-76
2021/04/30 01:06:28;;;;;;;10.10;9.00;;;9.40;99.90;;;;;;6277442;22;20343;-76
2021/04/30 01:08:59;;;;;;;14.95;10.02;;;9.40;99.90;;;;;;6252867;22;20030;-76
2021/04/30 01:11:33;;;;;;;15.63;9.13;;;9.30;99.90;;;;;;6279694;22;20097;-76
2021/04/30 01:14:04;;;;;;;11.18;9.50;;;9.20;99.90;;;;;;6253584;22;20012;-75
2021/04/30 01:16:36;;;;;;;11.00;9.02;;;9.30;99.90;;;;;;6277868;22;20094;-76
2021/04/30 01:19:07;;;;;;;11.82;8.82;;;9.30;99.90;;;;;;6254043;22;20011;-76
2021/04/30 01:21:38;;;;;;;10.25;8.30;;;9.30;99.90;;;;;;6253852;22;20062;-76
2021/04/30 01:24:10;;;;;;;15.45;8.50;;;9.40;99.90;;;;;;6305133;22;20422;-76
2021/04/30 01:26:43;;;;;;;13.60;9.38;;;9.40;99.90;;;;;;6278042;22;20041;-74
2021/04/30 01:29:15;;;;;;;11.98;9.55;;;9.50;99.90;;;;;;6279641;22;20030;-76
2021/04/30 01:31:47;;;;;;;10.68;7.93;;;9.50;99.90;;;;;;6253610;22;20051;-76
2021/04/30 01:34:19;;;;;;;12.70;7.97;;;9.50;99.90;;;;;;6304953;22;20094;-76
2021/04/30 01:36:50;;;;;;;12.95;8.73;;;9.50;99.90;;;;;;6254006;22;20012;-75
2021/04/30 01:39:21;;;;;;;11.25;8.27;;;9.50;99.90;;;;;;6305305;22;20022;-76
2021/04/30 01:41:53;;;;;;;11.70;9.23;;;9.50;99.90;;;;;;6253806;22;20054;-77
2021/04/30 01:44:24;;;;;;;10.07;8.23;;;9.50;99.90;;;;;;6277402;22;20023;-74
2021/04/30 01:46:59;;;;;;;14.05;8.75;;;9.50;99.90;;;;;;6254054;22;20022;-75
2021/04/30 01:49:30;;;;;;;11.00;8.18;;;9.50;99.90;;;;;;6277998;22;20098;-76
2021/04/30 01:51:56;;;;;;;10.93;8.98;;;9.50;99.90;;;;;;6252360;22;20027;-76
2021/04/30 01:54:28;;;;;;;11.50;8.40;;;9.60;99.90;;;;;;6253373;22;20452;-76
2021/04/30 01:56:59;;;;;;;13.93;8.90;;;9.60;99.90;;;;;;6279479;22;20035;-75
2021/04/30 01:59:30;;;;;;;11.48;8.55;;;9.60;99.90;;;;;;6278102;22;20021;-76
2021/04/30 02:01:58;;;;;;;11.00;7.93;;;9.50;99.90;;;;;;6278147;22;20050;-76
2021/04/30 02:04:29;;;;;;;11.80;8.75;;;9.50;99.90;;;;;;6277427;22;20020;-75
2021/04/30 02:07:00;;;;;;;11.55;9.55;;;9.50;99.90;;;;;;6279387;22;20041;-76
2021/04/30 02:09:31;;;;;;;11.35;9.80;;;9.50;99.90;;;;;;6253924;22;20452;-76
2021/04/30 02:12:03;;;;;;;10.60;8.68;;;9.50;99.90;;;;;;6279340;22;20408;-76
2021/04/30 02:14:34;;;;;;;11.88;9.50;;;9.50;99.90;;;;;;6278524;22;20474;-75
2021/04/30 02:17:06;;;;;;;12.00;8.88;;;9.50;99.90;;;;;;6278286;22;20011;-76
2021/04/30 02:19:37;;;;;;;11.35;9.35;;;9.50;99.90;;;;;;6281582;22;20025;-76
2021/04/30 02:22:08;;;;;;;12.60;9.82;;;9.50;99.90;;;;;;6256120;22;20015;-76
2021/04/30 02:24:40;;;;;;;13.20;8.90;;;9.40;99.90;;;;;;6255124;22;20021;-75
2021/04/30 02:27:11;;;;;;;9.77;8.60;;;9.40;99.90;;;;;;6307286;22;20022;-75
2021/04/30 02:29:43;;;;;;;10.75;9.35;;;9.40;99.90;;;;;;6280420;22;20025;-76
2021/04/30 02:32:14;;;;;;;11.82;9.68;;;9.40;99.90;;;;;;6254865;22;20098;-76
2021/04/30 02:34:45;;;;;;;13.30;9.35;;;9.40;99.90;;;;;;6280011;22;20015;-76
2021/04/30 02:37:12;;;;;;;11.75;9.18;;;9.40;99.90;;;;;;6253629;22;20472;-76
2021/04/30 02:39:43;;;;;;;12.95;9.73;;;9.40;99.90;;;;;;6278785;22;20098;-76
2021/04/30 02:42:14;;;;;;;12.63;10.38;;;9.40;99.90;;;;;;6279056;22;20037;-76
2021/04/30 02:44:45;;;;;;;13.15;10.10;;;9.40;99.90;;;;;;6278400;22;20403;-76
2021/04/30 02:47:17;;;;;;;14.25;10.13;;;9.40;99.90;;;;;;6279106;22;20026;-76
2021/04/30 02:49:49;;;;;;;11.68;9.68;;;9.40;99.90;;;;;;6280781;22;20415;-76
2021/04/30 02:52:20;;;;;;;12.00;10.40;;;9.40;99.90;;;;;;6279123;22;20042;-76
2021/04/30 02:54:46;;;;;;;11.93;9.60;;;9.40;99.90;;;;;;6254043;22;20015;-76
2021/04/30 02:57:18;;;;;;;11.02;9.57;;;9.40;99.90;;;;;;6261232;22;20015;-78
2021/04/30 02:59:50;;;;;;;14.07;9.90;;;9.40;99.90;;;;;;6310266;22;20008;-76
2021/04/30 03:02:21;;;;;;;13.25;9.88;;;9.40;99.90;;;;;;6286683;22;20075;-78
2021/04/30 03:04:53;;;;;;;11.20;9.43;;;9.30;99.90;;;;;;6285083;22;20021;-80
2021/04/30 03:07:24;;;;;;;11.00;9.80;;;9.30;99.90;;;;;;6284453;22;20047;-79
2021/04/30 03:09:55;;;;;;;12.60;9.95;;;9.30;99.90;;;;;;6284359;22;20053;-80
2021/04/30 03:12:26;;;;;;;12.63;10.18;;;9.30;99.90;;;;;;6284279;22;20029;-80
2021/04/30 03:14:58;;;;;;;10.98;9.57;;;9.30;99.90;;;;;;6287408;22;20405;-79
2021/04/30 03:17:30;;;;;;;12.43;10.00;;;9.20;99.90;;;;;;6286203;22;20481;-80
2021/04/30 03:20:01;;;;;;;11.93;9.98;;;9.20;99.90;;;;;;6284069;22;20043;-80
2021/04/30 03:22:33;;;;;;;17.25;10.98;;;9.10;99.90;;;;;;6284730;22;20022;-78
2021/04/30 03:25:08;;;;;;;14.95;11.38;;;9.10;99.90;;;;;;6287368;22;20390;-79
2021/04/30 03:27:39;;;;;;;12.43;10.07;;;9.00;99.90;;;;;;6288005;22;20019;-78
2021/04/30 03:30:12;;;;;;;11.75;9.57;;;9.00;99.90;;;;;;6313103;22;20030;-79
2021/04/30 03:32:43;;;;;;;16.80;10.60;;;9.00;99.90;;;;;;6287055;22;20322;-79
2021/04/30 03:35:18;;;;;;;35.67;22.88;;;9.00;99.90;;;;;;6285716;22;20448;-79
2021/04/30 03:37:49;;;;;;;146.20;85.85;;;8.90;99.90;;;;;;6312677;22;20448;-79
2021/04/30 03:40:21;;;;;;;21.85;15.55;;;8.80;99.90;;;;;;6261266;22;20094;-79
2021/04/30 03:42:52;;;;;;;16.33;11.70;;;8.80;99.90;;;;;;6312310;22;20035;-79
2021/04/30 03:45:24;;;;;;;15.13;11.75;;;8.80;99.90;;;;;;6286365;22;20054;-80
2021/04/30 03:47:55;;;;;;;14.80;10.40;;;8.70;99.90;;;;;;6285772;22;20115;-79
2021/04/30 03:50:26;;;;;;;16.02;11.98;;;8.70;99.90;;;;;;6285752;22;20341;-79
2021/04/30 03:52:57;;;;;;;16.08;11.48;;;8.70;99.90;;;;;;6311363;22;20102;-79
2021/04/30 03:55:29;;;;;;;14.32;11.57;;;8.70;99.90;;;;;;6259572;22;20011;-79
2021/04/30 03:58:00;;;;;;;15.40;11.98;;;8.70;99.90;;;;;;6261174;22;20107;-79
2021/04/30 04:00:31;;;;;;;15.68;12.50;;;8.60;99.90;;;;;;6312332;22;20043;-79
2021/04/30 04:03:03;;;;;;;19.65;12.40;;;8.60;99.90;;;;;;6311995;22;20062;-79
2021/04/30 04:05:29;;;;;;;16.45;12.65;;;8.50;99.90;;;;;;6285553;22;20418;-79
2021/04/30 04:08:00;;;;;;;16.77;12.95;;;8.50;99.90;;;;;;6262475;22;20074;-79
2021/04/30 04:10:31;;;;;;;15.40;12.27;;;8.50;99.90;;;;;;6286210;22;20471;-79
2021/04/30 04:13:18;;;;;;;15.82;11.68;;;8.40;99.90;;;;;;6286073;22;20466;-80
2021/04/30 04:15:50;;;;;;;16.73;12.27;;;8.50;99.90;;;;;;6285497;22;20324;-79
2021/04/30 04:18:24;;;;;;;17.65;12.63;;;8.40;99.90;;;;;;6260493;22;20075;-79
2021/04/30 04:20:55;;;;;;;15.68;11.80;;;8.50;99.90;;;;;;6312457;22;20035;-79
2021/04/30 04:23:27;;;;;;;16.45;12.77;;;8.40;99.90;;;;;;6286197;22;20098;-79
2021/04/30 04:25:58;;;;;;;17.13;12.27;;;8.40;99.90;;;;;;6312332;22;20046;-80
2021/04/30 04:28:29;;;;;;;16.13;12.48;;;8.40;99.90;;;;;;6312340;22;20022;-79
2021/04/30 04:31:01;;;;;;;16.27;11.90;;;8.40;99.90;;;;;;6259660;22;20011;-80
2021/04/30 04:33:33;;;;;;;15.15;11.50;;;8.50;99.90;;;;;;6284721;22;20021;-79
2021/04/30 04:36:04;;;;;;;13.10;10.45;;;8.50;99.90;;;;;;6284819;22;20045;-79
2021/04/30 04:38:35;;;;;;;20.20;12.38;;;8.50;99.90;;;;;;6285766;22;20336;-79
2021/04/30 04:41:07;;;;;;;17.27;11.65;;;8.50;99.90;;;;;;6286804;22;20474;-80
2021/04/30 04:43:38;;;;;;;15.52;12.20;;;8.50;99.90;;;;;;6260754;22;20019;-79
2021/04/30 04:46:09;;;;;;;16.38;12.70;;;8.50;99.90;;;;;;6284345;22;20046;-79
2021/04/30 04:48:40;;;;;;;18.02;12.35;;;8.60;99.90;;;;;;6285943;22;20115;-79
2021/04/30 04:51:11;;;;;;;19.25;12.52;;;8.60;99.90;;;;;;6284885;22;20459;-79
2021/04/30 04:53:43;;;;;;;18.65;12.30;;;8.60;99.90;;;;;;6285214;22;20111;-78
2021/04/30 04:56:14;;;;;;;15.80;12.23;;;8.60;99.90;;;;;;6311098;22;20034;-80
2021/04/30 04:58:47;;;;;;;16.42;12.55;;;8.60;99.90;;;;;;6259689;22;20043;-79
2021/04/30 05:01:19;;;;;;;15.98;12.85;;;8.60;99.90;;;;;;6261459;22;20098;-79
2021/04/30 05:03:51;;;;;;;19.45;13.18;;;8.50;99.90;;;;;;6260536;22;20146;-79
2021/04/30 05:06:22;;;;;;;20.20;14.00;;;8.50;99.90;;;;;;6260527;22;20098;-79
2021/04/30 05:08:53;;;;;;;16.40;12.32;;;8.50;99.90;;;;;;6285392;22;20466;-79
2021/04/30 05:11:25;;;;;;;17.20;13.18;;;8.50;99.90;;;;;;6287303;22;20042;-79
2021/04/30 05:13:56;;;;;;;15.55;11.68;;;8.40;99.90;;;;;;6284778;22;20022;-78
2021/04/30 05:16:27;;;;;;;13.55;10.63;;;8.40;99.90;;;;;;6285038;22;20065;-80
2021/04/30 05:18:59;;;;;;;22.77;13.00;;;8.40;99.90;;;;;;6284434;22;20130;-79
2021/04/30 05:21:25;;;;;;;18.67;13.13;;;8.50;99.90;;;;;;6284680;22;20015;-79
2021/04/30 05:23:58;;;;;;;21.52;13.73;;;8.50;99.90;;;;;;6259560;22;20405;-79
2021/04/30 05:26:29;;;;;;;20.77;15.65;;;8.50;99.90;;;;;;6285368;22;20102;-79
2021/04/30 05:29:01;;;;;;;20.67;14.65;;;8.50;99.90;;;;;;6283627;22;20109;-80
2021/04/30 05:31:34;;;;;;;27.52;15.88;;;8.40;99.90;;;;;;6284962;22;20046;-80
2021/04/30 05:34:06;;;;;;;22.83;16.25;;;8.40;99.90;;;;;;6311735;22;20477;-78
2021/04/30 05:36:37;;;;;;;18.58;13.35;;;8.40;99.90;;;;;;6285049;22;20015;-79
2021/04/30 05:39:08;;;;;;;20.45;14.02;;;8.50;99.90;;;;;;6283723;22;20045;-79
2021/04/30 05:41:39;;;;;;;21.73;13.80;;;8.50;99.90;;;;;;6311826;22;20046;-79
2021/04/30 05:44:10;;;;;;;23.52;17.33;;;8.50;99.90;;;;;;6259652;22;20420;-79
2021/04/30 05:46:42;;;;;;;20.88;14.23;;;8.50;99.90;;;;;;6284105;22;20050;-80
2021/04/30 05:49:13;;;;;;;19.25;13.43;;;8.50;99.90;;;;;;6286186;22;20479;-79
2021/04/30 05:51:44;;;;;;;18.13;14.75;;;8.60;99.90;;;;;;6285858;22;20098;-79
2021/04/30 05:54:16;;;;;;;14.82;12.52;;;8.60;99.90;;;;;;6285500;22;20527;-79
2021/04/30 05:56:47;;;;;;;16.58;12.45;;;8.60;99.90;;;;;;6285749;22;20019;-80
2021/04/30 05:59:13;;;;;;;13.88;10.85;;;8.60;99.90;;;;;;6287792;22;20018;-78
2021/04/30 06:01:44;;;;;;;18.17;12.98;;;8.70;99.90;;;;;;6286560;22;20049;-80
2021/04/30 06:04:16;;;;;;;15.35;11.20;;;8.70;99.90;;;;;;6286898;22;20098;-79
2021/04/30 06:06:50;;;;;;;15.55;12.25;;;8.70;99.90;;;;;;6288050;22;20102;-80
2021/04/30 06:09:21;;;;;;;14.90;11.93;;;8.80;99.90;;;;;;6285878;22;20388;-80
2021/04/30 06:11:53;;;;;;;16.02;10.82;;;8.80;99.90;;;;;;6285897;22;20094;-80
2021/04/30 06:14:33;;;;;;;14.07;11.13;;;8.90;99.90;;;;;;6286401;22;20102;-79
2021/04/30 06:17:05;;;;;;;12.05;9.85;;;8.90;99.90;;;;;;6313469;22;20082;-80
2021/04/30 06:19:36;;;;;;;15.38;11.63;;;8.90;99.90;;;;;;6284971;22;20107;-80
2021/04/30 06:22:07;;;;;;;18.95;14.52;;;8.90;99.90;;;;;;6312293;22;20046;-79
2021/04/30 06:24:38;;;;;;;14.93;12.48;;;9.00;99.90;;;;;;6284097;22;20022;-79
2021/04/30 06:27:09;;;;;;;16.67;12.48;;;9.00;99.90;;;;;;6284925;22;20106;-79
2021/04/30 06:29:41;;;;;;;13.77;10.80;;;9.00;99.90;;;;;;6285243;22;20022;-80
2021/04/30 06:32:12;;;;;;;16.08;12.18;;;9.10;99.90;;;;;;6313052;22;20403;-80
2021/04/30 06:34:43;;;;;;;13.77;11.02;;;9.20;99.90;;;;;;6260369;22;20075;-79
2021/04/30 06:37:16;;;;;;;12.07;10.57;;;9.30;99.90;;;;;;6286053;22;20102;-80
2021/04/30 06:39:47;;;;;;;15.50;10.85;;;9.30;99.90;;;;;;6261265;22;20349;-79
2021/04/30 06:42:19;;;;;;;15.43;12.30;;;9.40;99.90;;;;;;6285169;22;20090;-80
2021/04/30 06:44:52;;;;;;;14.13;11.43;;;9.50;99.90;;;;;;6260377;22;20015;-80
2021/04/30 06:47:24;;;;;;;12.35;9.98;;;9.60;99.90;;;;;;6286727;22;20527;-80
2021/04/30 06:49:55;;;;;;;13.23;10.57;;;9.70;99.90;;;;;;6312313;22;20083;-80
2021/04/30 06:52:26;;;;;;;16.00;11.95;;;9.80;99.90;;;;;;6286630;22;20011;-80
2021/04/30 06:54:57;;;;;;;14.70;11.50;;;9.80;99.90;;;;;;6261047;22;20039;-80
2021/04/30 06:57:24;;;;;;;15.32;10.73;;;9.90;99.90;;;;;;6312483;22;20428;-79
2021/04/30 06:59:51;;;;;;;14.80;10.30;;;9.90;99.90;;;;;;6259081;22;20016;-80
2021/04/30 07:02:17;;;;;;;13.52;10.90;;;9.90;99.90;;;;;;6284771;22;20062;-80
2021/04/30 07:04:49;;;;;;;14.85;11.07;;;9.90;99.90;;;;;;6259377;22;20101;-80
2021/04/30 07:07:21;;;;;;;14.77;11.32;;;10.00;99.90;;;;;;6286065;22;20049;-80
2021/04/30 07:09:52;;;;;;;14.45;11.18;;;10.00;99.90;;;;;;6284601;22;20098;-79
2021/04/30 07:12:23;;;;;;;13.07;10.93;;;10.10;99.90;;;;;;6285213;22;20075;-80
2021/04/30 07:14:54;;;;;;;14.65;11.45;;;10.00;99.90;;;;;;6285039;22;20071;-80
2021/04/30 07:17:26;;;;;;;14.25;11.63;;;10.10;99.90;;;;;;6260174;22;20076;-80
2021/04/30 07:19:58;;;;;;;13.57;11.07;;;10.20;99.90;;;;;;6310245;22;20041;-80
2021/04/30 07:22:29;;;;;;;14.05;11.65;;;10.20;99.90;;;;;;6259190;22;20038;-79
2021/04/30 07:25:00;;;;;;;14.38;11.13;;;10.30;99.90;;;;;;6312558;22;20106;-80
2021/04/30 07:27:32;;;;;;;13.55;11.30;;;10.30;99.90;;;;;;6311943;22;20321;-80
2021/04/30 07:30:04;;;;;;;14.80;11.27;;;10.50;99.90;;;;;;6283872;22;20035;-78
2021/04/30 07:32:35;;;;;;;14.55;10.88;;;10.50;99.90;;;;;;6258849;22;20018;-80
2021/04/30 07:35:07;;;;;;;14.60;11.48;;;10.60;99.90;;;;;;6284148;22;20515;-80
2021/04/30 07:37:38;;;;;;;16.75;12.70;;;10.70;99.90;;;;;;6285810;22;20050;-81
2021/04/30 07:40:10;;;;;;;15.43;12.10;;;10.80;99.90;;;;;;6262471;22;20016;-78
2021/04/30 07:42:43;;;;;;;17.42;13.05;;;10.90;99.90;;;;;;6285560;22;20039;-79
2021/04/30 07:45:15;;;;;;;17.13;12.73;;;10.90;99.90;;;;;;6311309;22;20022;-80
2021/04/30 07:47:41;;;;;;;13.98;11.45;;;11.00;99.90;;;;;;6282505;22;20106;-77
2021/04/30 07:50:12;;;;;;;15.15;12.15;;;11.10;99.90;;;;;;6256998;22;20038;-75
2021/04/30 07:52:44;;;;;;;14.65;11.57;;;11.20;99.90;;;;;;6284217;22;20012;-78
2021/04/30 07:55:10;;;;;;;15.38;12.25;;;11.20;99.90;;;;;;6307617;22;20406;-77
2021/04/30 07:57:41;;;;;;;18.77;12.02;;;11.30;99.90;;;;;;6283922;22;20049;-80
2021/04/30 08:00:14;;;;;;;15.07;11.77;;;11.40;99.90;;;;;;6311427;22;20046;-80
2021/04/30 08:02:47;;;;;;;13.82;11.32;;;11.50;99.90;;;;;;6286131;22;20018;-80
2021/04/30 08:05:13;;;;;;;14.13;11.52;;;11.60;99.90;;;;;;6258157;22;20080;-80
2021/04/30 08:07:45;;;;;;;14.63;11.98;;;11.70;99.90;;;;;;6258389;22;20344;-78
2021/04/30 08:10:16;;;;;;;13.93;11.73;;;11.80;99.90;;;;;;6281805;22;20090;-77
2021/04/30 08:12:50;;;;;;;11.35;9.88;;;11.90;99.90;;;;;;6280199;22;20102;-77
2021/04/30 08:15:16;;;;;;;13.95;11.50;;;12.00;99.90;;;;;;6309315;22;20073;-77
2021/04/30 08:17:47;;;;;;;12.00;10.40;;;12.10;99.90;;;;;;6259455;22;20106;-78
2021/04/30 08:20:19;;;;;;;12.40;10.48;;;12.20;99.90;;;;;;6283983;22;20095;-78
2021/04/30 08:22:50;;;;;;;14.00;10.77;;;12.30;99.90;;;;;;6282500;22;20049;-77
2021/04/30 08:25:22;;;;;;;13.65;10.70;;;12.40;99.90;;;;;;6282392;22;20094;-77
2021/04/30 08:27:53;;;;;;;14.52;11.73;;;12.40;99.90;;;;;;6280474;22;20526;-78
2021/04/30 08:30:24;;;;;;;14.15;11.75;;;12.60;99.90;;;;;;6311839;22;20019;-81
2021/04/30 08:32:56;;;;;;;12.13;10.82;;;12.60;99.90;;;;;;6285565;22;20134;-80
2021/04/30 08:35:27;;;;;;;11.68;10.15;;;12.80;99.90;;;;;;6284797;22;20015;-80
2021/04/30 08:37:59;;;;;;;17.95;10.43;;;12.90;99.90;;;;;;6282974;22;20037;-77
2021/04/30 08:40:27;;;;;;;15.63;10.30;;;13.10;99.90;;;;;;6280210;22;20110;-76
2021/04/30 08:42:59;;;;;;;12.48;10.15;;;13.20;99.90;;;;;;6278745;22;20090;-78
2021/04/30 08:45:30;;;;;;;11.48;10.25;;;13.30;99.90;;;;;;6304718;22;20025;-78
2021/04/30 08:48:02;;;;;;;12.63;10.80;;;13.40;99.90;;;;;;6281961;22;20023;-78
2021/04/30 08:50:33;;;;;;;14.50;10.60;;;13.40;99.90;;;;;;6280237;22;20015;-78
2021/04/30 08:53:05;;;;;;;13.75;10.40;;;13.50;99.90;;;;;;6282131;22;20058;-77
2021/04/30 08:55:37;;;;;;;13.27;9.48;;;13.60;99.90;;;;;;6307028;22;20460;-76
2021/04/30 08:58:10;;;;;;;12.50;9.70;;;13.60;99.90;;;;;;6281114;22;20039;-77
2021/04/30 09:00:41;;;;;;;13.85;10.23;;;13.70;99.90;;;;;;6255236;22;20018;-77
2021/04/30 09:03:13;;;;;;;11.68;9.80;;;13.90;99.90;;;;;;6279313;22;20472;-78
2021/04/30 09:05:55;;;;;;;15.35;9.90;;;13.90;99.10;;;;;;6307157;22;20046;-77
2021/04/30 09:08:27;;;;;;;11.95;9.77;;;14.00;97.90;;;;;;6255433;22;20043;-77
2021/04/30 09:10:58;;;;;;;12.10;9.98;;;14.10;98.00;;;;;;6308204;22;20102;-77
2021/04/30 09:13:30;;;;;;;11.70;9.60;;;14.20;97.60;;;;;;6257435;22;20046;-77
2021/04/30 09:16:04;;;;;;;13.20;9.85;;;14.30;97.00;;;;;;6280646;22;20470;-77
2021/04/30 09:18:36;;;;;;;13.57;10.07;;;14.40;96.30;;;;;;6252797;22;20106;-74
2021/04/30 09:21:07;;;;;;;12.32;10.80;;;14.40;96.00;;;;;;6303749;22;20042;-75
2021/04/30 09:23:33;;;;;;;11.38;10.27;;;14.50;96.70;;;;;;6275740;22;20020;-74
2021/04/30 09:26:26;;;;;;;12.05;10.05;;;14.50;95.90;;;;;;6271559;22;20039;-74
2021/04/30 09:29:03;;;;;;;12.90;10.43;;;14.60;95.40;;;;;;6268109;22;20428;-74
2021/04/30 09:31:38;;;;;;;15.80;10.82;;;14.60;95.60;;;;;;6280014;22;20229;-74
2021/04/30 09:34:23;;;;;;;13.38;10.63;;;14.60;94.80;;;;;;6277788;22;20022;-74
2021/04/30 09:37:10;;;;;;;12.05;10.05;;;14.60;95.80;;;;;;6276270;22;20219;-74
2021/04/30 09:40:00;;;;;;;14.90;10.68;;;14.70;95.30;;;;;;6278177;22;20099;-74
2021/04/30 09:42:31;;;;;;;14.02;10.85;;;14.70;95.70;;;;;;6278024;22;20019;-74
2021/04/30 09:45:06;;;;;;;14.20;11.98;;;14.70;95.10;;;;;;6276032;22;20058;-74
2021/04/30 09:47:38;;;;;;;13.50;11.27;;;14.80;94.20;;;;;;6305371;22;20023;-74
2021/04/30 09:50:23;;;;;;;12.48;10.48;;;14.70;95.00;;;;;;6279589;22;20049;-74
2021/04/30 09:52:59;;;;;;;12.30;10.73;;;14.70;95.20;;;;;;6253710;22;20094;-74
2021/04/30 09:55:51;;;;;;;13.43;10.98;;;14.90;95.30;;;;;;6277385;22;20047;-75
2021/04/30 09:58:29;;;;;;;14.23;11.45;;;15.00;95.30;;;;;;6279780;22;20019;-74
2021/04/30 10:01:01;;;;;;;19.60;14.90;;;15.00;94.60;;;;;;6278482;22;20090;-74
2021/04/30 10:03:35;;;;;;;50.38;27.23;;;15.00;94.60;;;;;;6278075;22;20045;-77
2021/04/30 10:06:17;;;;;;;22.45;15.32;;;15.20;95.30;;;;;;6303571;22;20095;-76
2021/04/30 10:09:04;;;;;;;23.08;14.75;;;15.20;95.10;;;;;;6278187;22;20019;-76
2021/04/30 10:11:36;;;;;;;26.00;15.93;;;15.40;94.10;;;;;;6277951;22;20429;-75
2021/04/30 10:14:07;;;;;;;17.00;12.40;;;15.50;94.40;;;;;;6273612;22;20022;-75
2021/04/30 10:16:38;;;;;;;12.30;10.38;;;15.60;95.20;;;;;;6277439;22;20054;-76
2021/04/30 10:19:10;;;;;;;13.10;10.90;;;15.70;94.50;;;;;;6304679;22;20432;-76
2021/04/30 10:21:44;;;;;;;12.43;11.13;;;15.90;94.40;;;;;;6278734;22;20064;-76
2021/04/30 10:24:17;;;;;;;16.23;13.88;;;16.00;93.90;;;;;;6278294;22;20026;-76
2021/04/30 10:26:49;;;;;;;18.85;13.68;;;16.20;93.90;;;;;;6277525;22;20049;-76
2021/04/30 10:29:22;;;;;;;15.25;12.35;;;16.30;93.30;;;;;;6304916;22;20094;-76
2021/04/30 10:31:58;;;;;;;17.23;13.65;;;16.40;93.30;;;;;;6253289;22;20019;-76
2021/04/30 10:34:38;;;;;;;12.40;10.95;;;16.40;93.20;;;;;;6278055;22;20015;-76
2021/04/30 10:37:14;;;;;;;19.52;12.02;;;16.30;93.10;;;;;;6304994;22;20016;-76
2021/04/30 10:39:58;;;;;;;13.60;11.02;;;16.50;93.60;;;;;;6255093;22;20018;-76
2021/04/30 10:42:40;;;;;;;13.43;11.75;;;16.60;93.30;;;;;;6306784;22;20011;-74
2021/04/30 10:45:17;;;;;;;13.95;12.45;;;16.80;92.20;;;;;;6254832;22;20102;-76
2021/04/30 10:48:08;;;;;;;15.20;11.38;;;16.90;92.00;;;;;;6255246;22;20015;-76
2021/04/30 10:50:39;;;;;;;12.70;10.20;;;17.00;92.50;;;;;;6279851;22;20015;-77
2021/04/30 10:53:28;;;;;;;11.20;9.95;;;17.00;92.30;;;;;;6276434;22;20021;-76
2021/04/30 10:56:10;;;;;;;13.38;9.93;;;17.20;92.70;;;;;;6279494;22;20019;-76
2021/04/30 10:58:41;;;;;;;12.35;9.75;;;17.30;92.10;;;;;;6307146;22;20011;-77
2021/04/30 11:01:24;;;;;;;12.63;10.52;;;17.50;92.30;;;;;;6279263;22;20011;-74
2021/04/30 11:04:15;;;;;;;15.27;11.20;;;17.70;91.10;;;;;;6305181;22;20016;-76
2021/04/30 11:06:50;;;;;;;11.48;9.98;;;17.80;91.40;;;;;;6279363;22;20424;-77
2021/04/30 11:09:27;;;;;;;11.13;9.82;;;17.90;90.80;;;;;;6306840;22;20017;-76
2021/04/30 11:12:01;;;;;;;12.50;11.15;;;18.00;90.50;;;;;;6309792;22;20094;-76
2021/04/30 11:14:35;;;;;;;13.88;11.82;;;18.10;88.30;;;;;;6307108;22;20022;-76
2021/04/30 11:17:06;;;;;;;12.27;10.82;;;18.20;88.30;;;;;;6279670;22;20041;-77
2021/04/30 11:19:45;;;;;;;12.68;11.38;;;18.10;90.10;;;;;;6279467;22;20444;-76
2021/04/30 11:22:21;;;;;;;12.15;10.98;;;18.20;90.10;;;;;;6278910;22;20355;-75
2021/04/30 11:24:58;;;;;;;13.77;10.95;;;18.20;88.90;;;;;;6305094;22;20103;-77
2021/04/30 11:27:31;;;;;;;13.48;11.13;;;18.30;90.10;;;;;;6279343;22;20102;-77
2021/04/30 11:30:20;;;;;;;13.85;11.68;;;18.40;89.10;;;;;;6254907;22;20015;-76
2021/04/30 11:32:53;;;;;;;12.52;11.05;;;18.50;85.90;;;;;;6279530;22;20153;-76
2021/04/30 11:35:26;;;;;;;14.32;12.55;;;18.40;89.10;;;;;;6278671;22;20021;-77
2021/04/30 11:37:58;;;;;;;18.30;13.18;;;18.30;86.90;;;;;;6254058;22;20452;-76
2021/04/30 11:40:29;;;;;;;12.57;11.27;;;18.20;87.10;;;;;;6279853;22;20447;-77
2021/04/30 11:43:06;;;;;;;12.80;11.50;;;18.10;87.80;;;;;;6280846;22;20540;-77
2021/04/30 11:45:37;;;;;;;14.73;12.25;;;18.10;90.10;;;;;;6253838;22;20050;-76
2021/04/30 11:48:09;;;;;;;13.75;11.50;;;18.10;89.20;;;;;;6255164;22;20011;-77
2021/04/30 11:50:41;;;;;;;12.15;10.95;;;18.30;89.90;;;;;;6251553;22;20012;-76
2021/04/30 11:53:13;;;;;;;12.55;10.80;;;18.40;88.90;;;;;;6305572;22;20294;-76
2021/04/30 11:55:47;;;;;;;12.95;11.63;;;18.40;88.10;;;;;;6305695;22;20539;-77
2021/04/30 11:58:18;;;;;;;12.60;10.43;;;18.60;88.10;;;;;;6305882;22;20049;-77
2021/04/30 12:00:52;;;;;;;12.98;10.55;;;18.70;87.30;;;;;;6254582;22;20022;-77
2021/04/30 12:03:24;;;;;;;11.10;10.00;;;18.80;84.70;;;;;;6305854;22;20440;-76
2021/04/30 12:05:55;;;;;;;11.90;9.82;;;18.90;85.20;;;;;;6304259;22;20102;-76
2021/04/30 12:08:26;;;;;;;13.23;10.45;;;19.00;85.00;;;;;;6304939;22;20094;-77
2021/04/30 12:10:57;;;;;;;13.27;11.23;;;19.20;84.60;;;;;;6279525;22;20483;-76
2021/04/30 12:13:30;;;;;;;13.63;12.23;;;19.30;82.70;;;;;;6278052;22;20098;-77
2021/04/30 12:16:14;;;;;;;14.18;12.68;;;19.30;82.70;;;;;;6303473;22;20015;-75
2021/04/30 12:18:47;;;;;;;15.27;12.20;;;19.40;82.70;;;;;;6303402;22;20039;-74
2021/04/30 12:21:34;;;;;;;14.05;11.90;;;19.30;81.30;;;;;;6277234;22;20444;-77
2021/04/30 12:24:07;;;;;;;12.70;11.40;;;19.10;82.40;;;;;;6304399;22;20391;-74
2021/04/30 12:26:38;;;;;;;11.75;10.55;;;19.10;80.90;;;;;;6276770;22;20023;-77
2021/04/30 12:29:08;;;;;;;19.05;12.30;;;19.20;83.30;;;;;;6277825;22;20016;-73
2021/04/30 12:31:35;;;;;;;15.25;11.95;;;19.50;83.60;;;;;;6277192;22;20023;-77
2021/04/30 12:34:06;;;;;;;15.98;12.48;;;19.60;81.80;;;;;;6253194;22;20047;-77
2021/04/30 12:36:38;;;;;;;13.13;11.82;;;19.50;81.80;;;;;;6279598;22;20015;-77
2021/04/30 12:39:11;;;;;;;14.88;12.60;;;19.50;80.00;;;;;;6279875;22;20102;-77
2021/04/30 12:41:43;;;;;;;17.00;13.40;;;19.40;79.30;;;;;;6304764;22;20011;-77
2021/04/30 12:44:14;;;;;;;12.85;11.55;;;19.20;79.60;;;;;;6279217;22;20026;-77
2021/04/30 12:46:46;;;;;;;14.75;13.25;;;19.00;81.10;;;;;;6254055;22;20094;-76
2021/04/30 12:49:18;;;;;;;13.18;11.88;;;19.00;81.10;;;;;;6278588;22;20126;-77
2021/04/30 12:51:55;;;;;;;13.88;11.77;;;19.10;80.50;;;;;;6253574;22;20046;-77
2021/04/30 12:54:34;;;;;;;12.60;11.13;;;19.30;79.70;;;;;;6304673;22;20015;-76
2021/04/30 12:57:10;;;;;;;12.32;11.07;;;19.50;80.20;;;;;;6280962;22;20094;-77
2021/04/30 13:00:01;;;;;;;13.77;10.98;;;19.70;78.90;;;;;;6255689;22;20515;-76
2021/04/30 13:02:33;;;;;;;11.60;10.25;;;19.90;76.30;;;;;;6304315;22;20016;-76